Time;durP1;ratioP1;P1;durP2;ratioP2;P2;SDS_P1;SDS_P2;PMS_P1;PMS_P2;Temp;Humidity;BMP_temperature;BMP_pressure;BME280_temperature;BME280_humidity;BME280_pressure;Samples;Min_cycle;Max_cycle;Signal;HPM_P1;HPM_P2
2021/12/23 00:01:41;;;;;;;30.25;24.95;;;-0.20;99.90;;;;;;5118697;27;20038;-72
2021/12/23 00:04:10;;;;;;;30.77;24.75;;;-0.20;99.90;;;;;;5126870;27;20050;-72
2021/12/23 00:06:36;;;;;;;32.17;25.05;;;-0.20;99.90;;;;;;5120188;27;20051;-71
2021/12/23 00:09:04;;;;;;;32.80;24.95;;;-0.20;99.90;;;;;;5119623;27;20039;-71
2021/12/23 00:11:30;;;;;;;34.13;24.80;;;-0.20;99.90;;;;;;5120526;27;20042;-72
2021/12/23 00:14:05;;;;;;;33.20;25.17;;;-0.20;99.90;;;;;;5123412;27;20570;-72
2021/12/23 00:16:46;;;;;;;30.63;25.67;;;-0.20;99.90;;;;;;5123650;27;20158;-73
2021/12/23 00:24:35;;;;;;;33.58;25.17;;;-0.10;99.90;;;;;;5123005;27;20036;-72
2021/12/23 00:27:00;;;;;;;28.13;23.27;;;-0.10;99.90;;;;;;5127076;27;20058;-73
2021/12/23 00:29:26;;;;;;;29.08;23.95;;;-0.10;99.90;;;;;;5125991;27;20042;-72
2021/12/23 00:31:52;;;;;;;29.58;24.10;;;-0.10;99.90;;;;;;5114433;27;20137;-72
2021/12/23 00:34:17;;;;;;;30.25;23.83;;;-0.10;99.90;;;;;;5112850;27;20467;-73
2021/12/23 00:36:45;;;;;;;28.98;24.25;;;-0.10;99.90;;;;;;5148035;27;20072;-73
2021/12/23 00:39:12;;;;;;;31.77;23.40;;;-0.10;99.90;;;;;;5115883;27;20113;-72
2021/12/23 00:41:40;;;;;;;28.02;23.73;;;-0.10;99.90;;;;;;5126786;27;20039;-72
2021/12/23 00:44:06;;;;;;;;;;;-0.10;99.90;;;;;;5127023;27;20055;-72
2021/12/23 00:46:31;;;;;;;28.95;22.40;;;-0.10;99.90;;;;;;5123414;27;20312;-72
2021/12/23 00:48:57;;;;;;;27.90;23.55;;;-0.10;99.90;;;;;;5119573;27;20097;-72
2021/12/23 00:51:22;;;;;;;28.63;22.85;;;-0.10;99.90;;;;;;5122188;27;20047;-72
2021/12/23 00:53:51;;;;;;;29.52;23.05;;;-0.10;99.90;;;;;;5120008;27;20050;-72
2021/12/23 00:56:17;;;;;;;28.60;23.88;;;-0.10;99.90;;;;;;5123490;27;20322;-72
2021/12/23 00:58:42;;;;;;;29.30;23.65;;;0.00;99.90;;;;;;5154080;27;20142;-72
2021/12/23 01:01:11;;;;;;;28.15;23.38;;;-0.10;99.90;;;;;;5122141;27;20082;-72
2021/12/23 01:03:37;;;;;;;29.10;22.77;;;0.00;99.90;;;;;;5122981;27;20042;-72
2021/12/23 01:06:03;;;;;;;30.13;23.73;;;0.00;99.90;;;;;;5115947;27;20624;-72
2021/12/23 01:08:29;;;;;;;27.83;23.03;;;-0.10;99.90;;;;;;5111266;27;20090;-72
2021/12/23 01:10:59;;;;;;;30.38;24.23;;;0.00;99.90;;;;;;5109679;27;20478;-72
2021/12/23 01:13:27;;;;;;;30.25;23.90;;;0.00;99.90;;;;;;5119264;27;20058;-72
2021/12/23 01:16:05;;;;;;;32.35;23.92;;;0.00;99.90;;;;;;5120880;27;20051;-72
2021/12/23 01:18:43;;;;;;;27.83;23.60;;;0.00;99.90;;;;;;5121988;27;20051;-72
2021/12/23 01:21:18;;;;;;;;;;;0.00;99.90;;;;;;5121416;27;20509;-72
2021/12/23 01:23:53;;;;;;;28.52;23.50;;;0.00;99.90;;;;;;5116845;27;20396;-73
2021/12/23 01:26:22;;;;;;;26.90;23.05;;;0.00;99.90;;;;;;5116512;27;20047;-72
2021/12/23 01:28:54;;;;;;;29.98;24.05;;;0.00;99.90;;;;;;5114701;27;20546;-72
2021/12/23 01:31:23;;;;;;;29.20;23.75;;;0.00;99.90;;;;;;5119111;27;20050;-72
2021/12/23 01:33:48;;;;;;;27.42;24.20;;;0.00;99.90;;;;;;5120756;27;20074;-72
2021/12/23 01:36:14;;;;;;;26.88;22.67;;;0.00;99.90;;;;;;5109602;27;20128;-72
2021/12/23 01:38:40;;;;;;;28.92;23.08;;;0.00;99.90;;;;;;5123939;27;20406;-72
2021/12/23 01:41:05;;;;;;;27.85;23.45;;;0.00;99.90;;;;;;5121465;27;20047;-72
2021/12/23 01:43:31;;;;;;;28.35;22.80;;;0.00;99.90;;;;;;5122316;27;20519;-72
2021/12/23 01:45:57;;;;;;;28.52;23.13;;;0.10;99.90;;;;;;5111222;27;20070;-72
2021/12/23 01:48:23;;;;;;;29.77;23.27;;;0.10;99.90;;;;;;5126635;27;20157;-71
2021/12/23 01:50:49;;;;;;;28.23;22.65;;;0.10;99.90;;;;;;5120254;27;20043;-73
2021/12/23 01:53:15;;;;;;;27.95;23.08;;;0.10;99.90;;;;;;5153483;27;20043;-72
2021/12/23 01:55:42;;;;;;;27.60;22.38;;;0.10;99.90;;;;;;5120072;27;20090;-72
2021/12/23 01:58:09;;;;;;;29.83;23.77;;;0.10;99.90;;;;;;5107817;27;20047;-72
2021/12/23 02:00:37;;;;;;;28.10;22.75;;;0.10;99.90;;;;;;5113148;27;20127;-72
2021/12/23 02:03:04;;;;;;;25.95;22.42;;;0.10;99.90;;;;;;5122508;27;20027;-72
2021/12/23 02:05:30;;;;;;;26.05;22.67;;;0.10;99.90;;;;;;5115785;27;20548;-73
2021/12/23 02:07:57;;;;;;;28.13;23.83;;;0.10;99.90;;;;;;5117194;27;20039;-73
2021/12/23 02:10:23;;;;;;;25.95;21.88;;;0.10;99.90;;;;;;5111747;28;20047;-72
2021/12/23 02:12:50;;;;;;;28.88;23.27;;;0.10;99.90;;;;;;5121179;28;20051;-72
2021/12/23 02:15:17;;;;;;;28.75;23.80;;;0.10;99.90;;;;;;5125649;27;20039;-72
2021/12/23 02:17:44;;;;;;;27.08;22.40;;;0.10;99.90;;;;;;5116344;28;20039;-72
2021/12/23 02:20:12;;;;;;;26.10;22.90;;;0.10;99.90;;;;;;5122615;28;20074;-72
2021/12/23 02:22:40;;;;;;;25.67;22.00;;;0.10;99.90;;;;;;5119409;28;20051;-72
2021/12/23 02:25:07;;;;;;;31.08;23.58;;;0.10;99.90;;;;;;5112876;28;20035;-71
2021/12/23 02:27:34;;;;;;;26.23;22.90;;;0.10;99.90;;;;;;5140596;27;20068;-72
2021/12/23 02:30:00;;;;;;;27.75;23.08;;;0.10;99.90;;;;;;5124764;27;20062;-72
2021/12/23 02:32:25;;;;;;;28.67;23.70;;;0.10;99.90;;;;;;5121367;28;20494;-72
2021/12/23 02:34:51;;;;;;;28.85;23.85;;;0.20;99.90;;;;;;5123446;27;20073;-72
2021/12/23 02:37:17;;;;;;;27.98;23.88;;;0.20;99.90;;;;;;5113326;28;20036;-72
2021/12/23 02:39:43;;;;;;;29.48;24.88;;;0.20;99.90;;;;;;5111103;28;20432;-72
2021/12/23 02:42:09;;;;;;;29.58;24.73;;;0.20;99.90;;;;;;5113822;28;20039;-72
2021/12/23 02:44:35;;;;;;;27.15;23.55;;;0.20;99.90;;;;;;5128382;28;20516;-72
2021/12/23 02:47:00;;;;;;;24.83;22.10;;;0.20;99.90;;;;;;5120847;28;20118;-72
2021/12/23 02:49:26;;;;;;;27.55;23.17;;;0.20;99.90;;;;;;5119911;28;20122;-72
2021/12/23 02:51:52;;;;;;;26.60;22.85;;;0.20;99.90;;;;;;5119506;28;20043;-72
2021/12/23 02:54:18;;;;;;;27.63;23.85;;;0.20;99.90;;;;;;5120084;27;20039;-72
2021/12/23 02:56:44;;;;;;;27.67;23.55;;;0.30;99.90;;;;;;5151341;27;20051;-72
2021/12/23 02:59:10;;;;;;;31.77;22.83;;;0.20;99.90;;;;;;5114336;28;20047;-72
2021/12/23 03:01:36;;;;;;;26.58;22.90;;;0.20;99.90;;;;;;5115257;28;20039;-72
2021/12/23 03:04:02;;;;;;;26.27;22.80;;;0.20;99.90;;;;;;5113088;28;20397;-72
2021/12/23 03:06:28;;;;;;;28.57;23.43;;;0.20;99.90;;;;;;5127113;27;20039;-72
2021/12/23 03:08:59;;;;;;;27.50;23.63;;;0.20;99.90;;;;;;5125806;27;20070;-72
2021/12/23 03:11:27;;;;;;;27.73;22.77;;;0.20;99.90;;;;;;5115326;27;20039;-72
2021/12/23 03:13:53;;;;;;;27.92;23.30;;;0.20;99.90;;;;;;5121618;27;20047;-72
2021/12/23 03:16:23;;;;;;;27.20;22.60;;;0.20;99.90;;;;;;5127084;27;20495;-72
2021/12/23 03:18:49;;;;;;;27.80;23.50;;;0.20;99.90;;;;;;5115431;27;20058;-72
2021/12/23 03:21:15;;;;;;;28.42;22.80;;;0.20;99.90;;;;;;5118932;27;20470;-72
2021/12/23 03:23:41;;;;;;;30.05;23.75;;;0.20;99.90;;;;;;5116799;27;20402;-72
2021/12/23 03:26:07;;;;;;;28.15;24.10;;;0.20;99.90;;;;;;5126478;27;20043;-72
2021/12/23 03:28:33;;;;;;;27.58;23.08;;;0.20;99.90;;;;;;5129000;27;20053;-72
2021/12/23 03:30:59;;;;;;;27.00;23.58;;;0.20;99.90;;;;;;5128199;27;20042;-72
2021/12/23 03:33:25;;;;;;;28.38;23.70;;;0.10;99.90;;;;;;5124695;27;20083;-72
2021/12/23 03:35:52;;;;;;;29.30;24.15;;;0.10;99.90;;;;;;5127363;27;20047;-72
2021/12/23 03:38:20;;;;;;;29.42;24.48;;;0.20;99.90;;;;;;5119031;27;20046;-72
2021/12/23 03:40:46;;;;;;;30.17;24.75;;;0.10;99.90;;;;;;5127436;27;20391;-72
2021/12/23 03:43:14;;;;;;;28.58;24.38;;;0.10;99.90;;;;;;5127100;27;20073;-72
2021/12/23 03:45:40;;;;;;;44.40;35.90;;;0.10;99.90;;;;;;5128634;27;20437;-72
2021/12/23 03:48:05;;;;;;;32.38;26.20;;;0.10;99.90;;;;;;5126620;27;20043;-72
2021/12/23 03:50:31;;;;;;;31.20;25.75;;;0.10;99.90;;;;;;5121888;27;20130;-73
2021/12/23 03:52:57;;;;;;;27.42;23.88;;;0.10;99.90;;;;;;5112074;27;20071;-72
2021/12/23 03:55:22;;;;;;;29.85;25.08;;;0.10;99.90;;;;;;5119704;27;20039;-72
2021/12/23 03:57:48;;;;;;;28.95;23.58;;;0.10;99.90;;;;;;5108735;27;20046;-72
2021/12/23 04:00:17;;;;;;;28.17;24.70;;;0.10;99.90;;;;;;5116585;27;20044;-72
2021/12/23 04:02:43;;;;;;;27.75;24.15;;;0.10;99.90;;;;;;5116262;27;20043;-72
2021/12/23 04:05:09;;;;;;;27.17;23.50;;;0.10;99.90;;;;;;5129162;27;20043;-72
2021/12/23 04:07:36;;;;;;;30.63;24.42;;;0.10;99.90;;;;;;5128243;27;20114;-72
2021/12/23 04:10:03;;;;;;;28.63;24.75;;;0.10;99.90;;;;;;5123947;27;20078;-72
2021/12/23 04:12:29;;;;;;;;;;;0.00;99.90;;;;;;5121758;27;20387;-72
2021/12/23 04:14:55;;;;;;;31.45;23.13;;;0.10;99.90;;;;;;5125299;27;19919;-72
2021/12/23 04:17:20;;;;;;;28.02;24.65;;;0.00;99.90;;;;;;5129053;27;20451;-72
2021/12/23 04:19:47;;;;;;;28.58;24.02;;;0.10;99.90;;;;;;5122745;27;20039;-72
2021/12/23 04:22:13;;;;;;;27.58;23.95;;;0.10;99.90;;;;;;5127928;27;20071;-72
2021/12/23 04:24:38;;;;;;;28.70;24.08;;;0.10;99.90;;;;;;5126443;27;20047;-72
2021/12/23 04:27:05;;;;;;;28.83;24.05;;;0.10;99.90;;;;;;5129817;27;20042;-72
2021/12/23 04:29:30;;;;;;;28.90;24.92;;;0.10;99.90;;;;;;5129534;27;20035;-72
2021/12/23 04:31:56;;;;;;;29.33;23.83;;;0.10;99.90;;;;;;5131407;27;20258;-71
2021/12/23 04:34:22;;;;;;;30.00;25.17;;;0.10;99.90;;;;;;5149398;27;20560;-72
2021/12/23 04:36:47;;;;;;;29.38;25.40;;;0.10;99.90;;;;;;5111930;27;20064;-72
2021/12/23 04:39:13;;;;;;;28.17;24.55;;;0.10;99.90;;;;;;5127380;27;20424;-72
2021/12/23 04:41:39;;;;;;;28.25;24.27;;;0.10;99.90;;;;;;5126567;27;20474;-72
2021/12/23 04:44:05;;;;;;;28.52;25.23;;;0.10;99.90;;;;;;5120033;27;20359;-72
2021/12/23 04:46:31;;;;;;;30.17;24.55;;;0.10;99.90;;;;;;5151753;27;20074;-72
2021/12/23 04:48:57;;;;;;;28.63;24.33;;;0.10;99.90;;;;;;5124444;27;20134;-72
2021/12/23 04:51:23;;;;;;;30.52;24.52;;;0.10;99.90;;;;;;5120953;27;20600;-72
2021/12/23 04:53:49;;;;;;;27.98;24.98;;;0.10;99.90;;;;;;5124637;27;20043;-72
2021/12/23 04:56:15;;;;;;;30.42;25.15;;;0.10;99.90;;;;;;5146852;27;20075;-72
2021/12/23 04:58:42;;;;;;;27.98;23.67;;;0.10;99.90;;;;;;5114593;27;20070;-72
2021/12/23 05:01:16;;;;;;;26.73;23.70;;;0.10;99.90;;;;;;5114978;27;20035;-72
2021/12/23 05:03:43;;;;;;;29.33;24.58;;;0.10;99.90;;;;;;5113570;27;20696;-72
2021/12/23 05:06:09;;;;;;;27.83;24.60;;;0.20;99.90;;;;;;5127227;27;20103;-72
2021/12/23 05:08:34;;;;;;;29.98;25.00;;;0.10;99.90;;;;;;5122774;27;20482;-72
2021/12/23 05:11:00;;;;;;;28.95;25.42;;;0.20;99.90;;;;;;5126699;27;20050;-72
2021/12/23 05:13:25;;;;;;;27.50;23.92;;;0.20;99.90;;;;;;5127083;27;20344;-72
2021/12/23 05:15:51;;;;;;;42.10;33.30;;;0.20;99.90;;;;;;5126735;27;20129;-72
2021/12/23 05:18:17;;;;;;;46.63;37.40;;;0.20;99.90;;;;;;5151667;27;20049;-72
2021/12/23 05:20:44;;;;;;;43.20;34.80;;;0.20;99.90;;;;;;5124179;27;20047;-72
2021/12/23 05:23:09;;;;;;;30.05;26.20;;;0.20;99.90;;;;;;5111449;27;20084;-72
2021/12/23 05:25:35;;;;;;;27.83;24.30;;;0.20;99.90;;;;;;5118915;27;20035;-72
2021/12/23 05:28:01;;;;;;;30.00;25.73;;;0.20;99.90;;;;;;5124984;27;20047;-72
2021/12/23 05:30:27;;;;;;;27.00;24.10;;;0.20;99.90;;;;;;5122005;27;20036;-72
2021/12/23 05:32:53;;;;;;;29.30;24.50;;;0.20;99.90;;;;;;5115769;27;20749;-72
2021/12/23 05:35:21;;;;;;;30.50;24.33;;;0.20;99.90;;;;;;5124855;27;20046;-72
2021/12/23 05:37:47;;;;;;;28.70;24.80;;;0.20;99.90;;;;;;5127234;27;20039;-72
2021/12/23 05:40:16;;;;;;;27.07;24.13;;;0.20;99.90;;;;;;5118863;27;20039;-71
2021/12/23 05:42:42;;;;;;;28.25;24.02;;;0.20;99.90;;;;;;5121111;27;20118;-71
2021/12/23 05:45:09;;;;;;;27.70;23.25;;;0.20;99.90;;;;;;5117115;27;20172;-72
2021/12/23 05:47:34;;;;;;;26.60;23.58;;;0.20;99.90;;;;;;5114041;27;20539;-72
2021/12/23 05:50:00;;;;;;;27.52;23.58;;;0.20;99.90;;;;;;5123196;27;20142;-72
2021/12/23 05:52:26;;;;;;;31.33;25.52;;;0.20;99.90;;;;;;5150419;27;20047;-72
2021/12/23 05:54:52;;;;;;;42.03;34.05;;;0.20;99.90;;;;;;5122604;27;20043;-72
2021/12/23 05:57:17;;;;;;;56.40;43.78;;;0.20;99.90;;;;;;5114950;27;20031;-72
2021/12/23 05:59:43;;;;;;;58.22;46.22;;;0.20;99.90;;;;;;5115932;27;20039;-72
2021/12/23 06:02:09;;;;;;;41.35;33.38;;;0.30;99.90;;;;;;5122151;27;20031;-72
2021/12/23 06:04:35;;;;;;;34.25;29.90;;;0.30;99.90;;;;;;5121473;27;20503;-72
2021/12/23 06:07:02;;;;;;;31.63;27.13;;;0.30;99.90;;;;;;5123078;27;20040;-72
2021/12/23 06:09:28;;;;;;;30.98;26.13;;;0.30;99.90;;;;;;5146733;27;20451;-72
2021/12/23 06:11:53;;;;;;;31.73;25.75;;;0.30;99.90;;;;;;5126551;27;20138;-72
2021/12/23 06:14:21;;;;;;;28.20;24.17;;;0.30;99.90;;;;;;5124034;27;20063;-72
2021/12/23 06:16:46;;;;;;;29.70;25.40;;;0.30;99.90;;;;;;5115079;27;20477;-71
2021/12/23 06:19:12;;;;;;;49.03;38.42;;;0.30;99.90;;;;;;5121467;28;20045;-72
2021/12/23 06:21:38;;;;;;;56.70;45.10;;;0.30;99.90;;;;;;5127399;27;20059;-72
2021/12/23 06:24:04;;;;;;;50.78;41.22;;;0.30;99.90;;;;;;5123800;27;20126;-72
2021/12/23 06:26:31;;;;;;;46.30;35.85;;;0.30;99.90;;;;;;5127200;28;20051;-72
2021/12/23 06:28:57;;;;;;;46.50;36.13;;;0.30;99.90;;;;;;5127253;27;20046;-72
2021/12/23 06:31:23;;;;;;;42.38;34.25;;;0.30;99.90;;;;;;5118747;28;20039;-71
2021/12/23 06:33:48;;;;;;;36.72;30.52;;;0.40;99.90;;;;;;5126059;28;20561;-72
2021/12/23 06:36:14;;;;;;;35.95;28.83;;;0.30;99.90;;;;;;5120436;28;20466;-72
2021/12/23 06:38:42;;;;;;;28.92;24.50;;;0.30;99.90;;;;;;5123463;28;21746;-72
2021/12/23 06:41:08;;;;;;;29.55;24.75;;;0.30;99.90;;;;;;5129126;27;20051;-72
2021/12/23 06:43:34;;;;;;;33.08;26.65;;;0.30;99.90;;;;;;5129506;27;20381;-72
2021/12/23 06:46:00;;;;;;;31.90;26.52;;;0.40;99.90;;;;;;5121600;27;20047;-72
2021/12/23 06:48:26;;;;;;;31.15;25.58;;;0.30;99.90;;;;;;5152331;27;20049;-72
2021/12/23 06:50:54;;;;;;;32.03;25.60;;;0.30;99.90;;;;;;5113008;27;20044;-72
2021/12/23 06:53:20;;;;;;;31.42;26.75;;;0.30;99.90;;;;;;5120952;27;20103;-72
2021/12/23 06:55:46;;;;;;;30.38;25.15;;;0.30;99.90;;;;;;5130991;27;20471;-72
2021/12/23 06:58:12;;;;;;;28.83;25.13;;;0.40;99.90;;;;;;5129540;27;20043;-71
2021/12/23 07:00:37;;;;;;;33.03;26.88;;;0.40;99.90;;;;;;5122603;27;20039;-72
2021/12/23 07:03:03;;;;;;;29.27;24.55;;;0.40;99.90;;;;;;5118634;27;20482;-72
2021/12/23 07:05:29;;;;;;;36.17;28.08;;;0.40;99.90;;;;;;5127247;27;20123;-72
2021/12/23 07:08:25;;;;;;;44.95;36.15;;;0.40;99.90;;;;;;5119278;27;20118;-72
2021/12/23 07:10:43;;;;;;;46.78;36.15;;;0.40;99.90;;;;;;5123246;27;20055;-73
2021/12/23 07:13:09;;;;;;;49.05;38.55;;;0.40;99.90;;;;;;5122850;27;20616;-72
2021/12/23 07:15:36;;;;;;;41.53;33.50;;;0.40;99.90;;;;;;5114236;27;20043;-73
2021/12/23 07:18:01;;;;;;;51.70;41.22;;;0.40;99.90;;;;;;5128529;27;20043;-73
2021/12/23 07:20:28;;;;;;;52.83;41.20;;;0.40;99.90;;;;;;5114674;27;20036;-73
2021/12/23 07:22:55;;;;;;;40.67;33.60;;;0.40;99.90;;;;;;5127015;27;20054;-73
2021/12/23 07:25:21;;;;;;;40.83;34.05;;;0.40;99.90;;;;;;5109312;27;20414;-73
2021/12/23 07:27:47;;;;;;;37.60;30.60;;;0.50;99.90;;;;;;5124800;27;20118;-73
2021/12/23 07:30:15;;;;;;;35.92;28.95;;;0.50;99.90;;;;;;5126643;27;20409;-72
2021/12/23 07:32:41;;;;;;;34.25;28.48;;;0.50;99.90;;;;;;5114331;27;20044;-73
2021/12/23 07:35:08;;;;;;;41.85;32.25;;;0.50;99.90;;;;;;5131626;27;20048;-73
2021/12/23 07:37:34;;;;;;;39.90;31.83;;;0.50;99.90;;;;;;5159961;27;20043;-73
2021/12/23 07:40:00;;;;;;;38.03;29.67;;;0.50;99.90;;;;;;5129870;27;20055;-73
2021/12/23 07:42:27;;;;;;;33.63;27.67;;;0.50;99.90;;;;;;5146139;27;20035;-73
2021/12/23 07:44:54;;;;;;;40.97;31.95;;;0.50;99.90;;;;;;5110017;27;20047;-73
2021/12/23 07:47:19;;;;;;;36.53;30.63;;;0.60;99.90;;;;;;5123569;27;20043;-73
2021/12/23 07:49:45;;;;;;;33.95;28.27;;;0.50;99.90;;;;;;5127533;27;20031;-73
2021/12/23 07:52:11;;;;;;;33.83;28.08;;;0.50;99.90;;;;;;5128263;27;20103;-73
2021/12/23 07:54:39;;;;;;;31.40;26.77;;;0.60;99.90;;;;;;5128364;27;20072;-73
2021/12/23 07:57:05;;;;;;;34.63;28.30;;;0.50;99.90;;;;;;5124408;27;20518;-73
2021/12/23 07:59:32;;;;;;;32.92;28.15;;;0.60;99.90;;;;;;5144375;27;20047;-73
2021/12/23 08:01:58;;;;;;;36.15;28.67;;;0.60;99.90;;;;;;5107531;27;20048;-72
2021/12/23 08:04:25;;;;;;;32.97;27.38;;;0.60;99.90;;;;;;5120809;27;20043;-73
2021/12/23 08:06:57;;;;;;;34.35;27.58;;;0.60;99.90;;;;;;5128800;27;20035;-73
2021/12/23 08:09:24;;;;;;;36.33;28.17;;;0.60;99.90;;;;;;5130083;27;20053;-73
2021/12/23 08:11:51;;;;;;;40.80;27.10;;;0.60;99.90;;;;;;5128560;27;20043;-73
2021/12/23 08:14:17;;;;;;;33.92;28.38;;;0.60;99.90;;;;;;5126294;27;20051;-73
2021/12/23 08:16:43;;;;;;;33.30;28.10;;;0.60;99.90;;;;;;5110500;27;20242;-73
2021/12/23 08:19:09;;;;;;;36.55;28.58;;;0.60;99.90;;;;;;5129728;27;20049;-73
2021/12/23 08:21:35;;;;;;;39.50;29.73;;;0.60;99.90;;;;;;5128025;27;20047;-73
2021/12/23 08:24:01;;;;;;;36.33;29.88;;;0.60;99.90;;;;;;5111897;27;20088;-73
2021/12/23 08:26:38;;;;;;;36.03;29.48;;;0.60;99.90;;;;;;5127637;27;20039;-72
2021/12/23 08:29:04;;;;;;;;;;;0.60;99.90;;;;;;5155790;27;20043;-72
2021/12/23 08:31:29;;;;;;;43.13;34.30;;;0.60;99.90;;;;;;5124695;27;20602;-73
2021/12/23 08:33:55;;;;;;;40.13;33.25;;;0.60;99.90;;;;;;5150881;27;20502;-72
2021/12/23 08:36:21;;;;;;;42.17;34.03;;;0.60;99.90;;;;;;5108850;27;20044;-71
2021/12/23 08:38:46;;;;;;;40.45;33.28;;;0.60;99.90;;;;;;5121607;27;20453;-74
2021/12/23 08:41:12;;;;;;;41.70;33.72;;;0.70;99.90;;;;;;5122562;27;20050;-73
2021/12/23 08:43:37;;;;;;;41.35;34.25;;;0.70;99.90;;;;;;5146360;27;20390;-72
2021/12/23 08:46:03;;;;;;;43.63;35.00;;;0.70;99.90;;;;;;5117773;27;20492;-72
2021/12/23 08:48:29;;;;;;;42.85;33.75;;;0.70;99.90;;;;;;5124296;27;20169;-73
2021/12/23 08:50:55;;;;;;;45.88;35.03;;;0.70;99.90;;;;;;5117269;27;20151;-73
2021/12/23 08:53:21;;;;;;;48.40;38.17;;;0.80;99.90;;;;;;5116387;27;20558;-74
2021/12/23 08:55:47;;;;;;;48.03;37.10;;;0.80;99.90;;;;;;5128765;27;20180;-73
2021/12/23 08:58:13;;;;;;;46.15;37.38;;;0.80;99.90;;;;;;5128235;27;20627;-73
2021/12/23 09:00:40;;;;;;;48.08;37.13;;;0.80;99.90;;;;;;5124003;27;20048;-72
2021/12/23 09:03:08;;;;;;;49.60;37.55;;;0.80;99.90;;;;;;5122530;27;20504;-73
2021/12/23 09:05:35;;;;;;;45.22;37.33;;;0.80;99.90;;;;;;5126073;27;20619;-74
2021/12/23 09:08:02;;;;;;;48.10;36.88;;;0.80;99.90;;;;;;5109469;28;20039;-72
2021/12/23 09:10:28;;;;;;;48.22;37.78;;;0.80;99.90;;;;;;5109667;28;20062;-74
2021/12/23 09:12:54;;;;;;;46.45;37.13;;;0.80;99.90;;;;;;5116040;27;20710;-74
2021/12/23 09:15:20;;;;;;;51.33;39.65;;;0.90;99.90;;;;;;5108748;27;20051;-71
2021/12/23 09:17:46;;;;;;;52.92;39.53;;;0.90;99.90;;;;;;5123237;27;20095;-71
2021/12/23 09:20:14;;;;;;;53.75;40.13;;;0.90;99.90;;;;;;5124535;27;20047;-70
2021/12/23 09:22:41;;;;;;;49.88;38.45;;;0.90;99.90;;;;;;5143744;27;20134;-71
2021/12/23 09:25:11;;;;;;;51.40;37.83;;;0.90;99.90;;;;;;5131199;27;20051;-69
2021/12/23 09:28:05;;;;;;;49.75;38.15;;;0.90;99.90;;;;;;5122136;27;20028;-70
2021/12/23 09:33:17;;;;;;;55.10;39.38;;;0.90;99.90;;;;;;5124104;27;20055;-70
2021/12/23 09:35:43;;;;;;;48.83;37.97;;;0.90;99.90;;;;;;5121450;27;20410;-70
2021/12/23 09:38:09;;;;;;;50.55;38.63;;;0.90;99.90;;;;;;5109288;28;20035;-70
2021/12/23 09:40:36;;;;;;;51.28;38.05;;;0.90;99.90;;;;;;5151061;27;20043;-70
2021/12/23 09:43:04;;;;;;;51.97;38.22;;;0.90;99.90;;;;;;5114452;27;20051;-70
2021/12/23 09:45:31;;;;;;;51.47;39.88;;;1.00;99.90;;;;;;5121037;27;20115;-71
2021/12/23 09:47:58;;;;;;;53.38;39.78;;;1.00;99.90;;;;;;5114504;27;20040;-71
2021/12/23 09:50:27;;;;;;;52.57;39.87;;;1.00;99.90;;;;;;5110753;27;20056;-72
2021/12/23 09:52:54;;;;;;;52.45;40.53;;;1.00;99.90;;;;;;5123776;27;20320;-73
2021/12/23 09:55:23;;;;;;;54.60;39.83;;;1.00;99.90;;;;;;5127032;27;20047;-73
2021/12/23 09:57:51;;;;;;;55.38;39.85;;;1.00;99.90;;;;;;5126357;27;20466;-74
2021/12/23 10:00:18;;;;;;;;;;;1.00;99.90;;;;;;5124487;27;20054;-70
2021/12/23 10:02:43;;;;;;;53.33;39.65;;;1.00;99.90;;;;;;5124074;27;20014;-73
2021/12/23 10:05:11;;;;;;;52.83;41.33;;;1.00;99.90;;;;;;5126503;27;20541;-70
2021/12/23 10:07:39;;;;;;;52.63;40.63;;;1.00;99.90;;;;;;5117600;27;20073;-71
2021/12/23 10:10:16;;;;;;;;;;;1.00;99.90;;;;;;5107496;28;20788;-70
2021/12/23 10:32:54;;;;;;;58.22;42.75;;;1.10;99.90;;;;;;5120927;27;20039;-69
2021/12/23 10:38:08;;;;;;;55.50;40.22;;;1.10;99.90;;;;;;5114133;27;20491;-69
2021/12/23 10:40:39;;;;;;;60.92;44.67;;;1.10;99.90;;;;;;5107148;28;20046;-71
2021/12/23 10:43:08;;;;;;;55.10;41.53;;;1.20;99.90;;;;;;5115979;27;20050;-72
2021/12/23 10:45:39;;;;;;;60.30;43.15;;;1.20;99.90;;;;;;5125745;27;20050;-72
2021/12/23 10:48:10;;;;;;;57.17;41.55;;;1.20;99.90;;;;;;5125611;28;20039;-70
2021/12/23 10:50:44;;;;;;;57.63;43.88;;;1.20;99.90;;;;;;5113635;28;20708;-69
2021/12/23 10:53:30;;;;;;;61.03;45.90;;;1.20;99.90;;;;;;5108474;28;20035;-70
2021/12/23 10:59:10;;;;;;;61.20;44.03;;;1.30;99.90;;;;;;5107043;28;20055;-73
2021/12/23 11:01:57;;;;;;;58.05;43.17;;;1.30;99.90;;;;;;5136999;27;20070;-71
2021/12/23 11:04:23;;;;;;;60.88;44.13;;;1.30;99.90;;;;;;5156291;27;20043;-71
2021/12/23 11:06:56;;;;;;;58.50;43.08;;;1.30;99.90;;;;;;5111665;28;20050;-70
2021/12/23 11:09:39;;;;;;;62.03;43.95;;;1.30;99.90;;;;;;5150880;27;20122;-70
2021/12/23 11:38:33;;;;;;;60.90;43.65;;;1.30;99.90;;;;;;5152040;27;20059;-71
2021/12/23 11:41:07;;;;;;;61.30;42.88;;;1.30;99.90;;;;;;5115555;27;20853;-71
2021/12/23 11:43:48;;;;;;;59.42;43.80;;;1.40;99.90;;;;;;5123980;27;20052;-72
2021/12/23 11:46:18;;;;;;;59.67;43.40;;;1.40;99.90;;;;;;5117780;27;20054;-71
2021/12/23 11:48:46;;;;;;;57.33;42.72;;;1.40;99.90;;;;;;5127589;27;20497;-72
2021/12/23 11:51:19;;;;;;;61.15;44.75;;;1.40;99.90;;;;;;5129019;27;20043;-71
2021/12/23 11:53:50;;;;;;;61.40;44.08;;;1.40;99.90;;;;;;5129042;27;20540;-72
2021/12/23 11:56:19;;;;;;;57.78;42.42;;;1.40;99.90;;;;;;5127511;27;20377;-71
2021/12/23 11:58:47;;;;;;;61.67;43.85;;;1.40;99.90;;;;;;5125217;27;20040;-71
2021/12/23 12:01:24;;;;;;;64.72;44.25;;;1.40;99.90;;;;;;5114063;27;20032;-71
2021/12/23 12:04:02;;;;;;;63.65;44.20;;;1.40;99.90;;;;;;5111845;27;20190;-73
2021/12/23 12:06:37;;;;;;;62.53;43.65;;;1.40;99.90;;;;;;5127195;27;20046;-73
2021/12/23 12:09:27;;;;;;;58.92;43.22;;;1.40;99.90;;;;;;5128426;27;20047;-71
2021/12/23 12:11:58;;;;;;;60.10;43.28;;;1.50;99.90;;;;;;5114704;27;20079;-71
2021/12/23 12:14:36;;;;;;;58.92;42.65;;;1.40;99.90;;;;;;5128967;27;20040;-71
2021/12/23 12:17:20;;;;;;;;;;;1.50;99.90;;;;;;5127481;27;20047;-71
2021/12/23 12:20:21;;;;;;;60.08;43.60;;;1.40;99.90;;;;;;5128342;27;19927;-72
2021/12/23 12:22:55;;;;;;;63.95;44.40;;;1.50;99.90;;;;;;5122734;27;20440;-71
2021/12/23 12:25:23;;;;;;;59.75;43.83;;;1.50;99.90;;;;;;5119968;27;20035;-70
2021/12/23 12:27:55;;;;;;;61.03;43.33;;;1.50;99.90;;;;;;5120618;27;20055;-71
2021/12/23 12:30:37;;;;;;;63.22;44.05;;;1.50;99.90;;;;;;5133813;27;20070;-70
2021/12/23 12:33:05;;;;;;;66.20;44.08;;;1.50;99.90;;;;;;5126387;27;20153;-71
2021/12/23 12:35:31;;;;;;;58.90;42.38;;;1.50;99.90;;;;;;5121184;27;20251;-71
2021/12/23 12:38:19;;;;;;;61.40;42.88;;;1.50;99.90;;;;;;5107425;27;20035;-72
2021/12/23 12:41:05;;;;;;;59.42;43.78;;;1.50;99.90;;;;;;5126528;27;20043;-70
2021/12/23 12:43:48;;;;;;;63.22;43.95;;;1.50;99.90;;;;;;5124159;27;20558;-71
2021/12/23 12:46:52;;;;;;;61.42;43.17;;;1.50;99.90;;;;;;5117287;27;20058;-71
2021/12/23 12:49:29;;;;;;;64.43;44.90;;;1.50;99.90;;;;;;5109537;27;20051;-71
2021/12/23 12:52:08;;;;;;;62.28;44.05;;;1.60;99.90;;;;;;5144637;27;20062;-72
2021/12/23 12:54:45;;;;;;;62.33;43.75;;;1.50;99.90;;;;;;5155392;27;20126;-71
2021/12/23 12:57:11;;;;;;;62.50;43.28;;;1.50;99.90;;;;;;5127595;27;20402;-76
2021/12/23 12:59:43;;;;;;;60.65;44.30;;;1.50;99.90;;;;;;5126280;27;20043;-74
2021/12/23 13:02:21;;;;;;;60.35;46.28;;;1.60;99.90;;;;;;5127095;27;20055;-72
2021/12/23 13:04:56;;;;;;;61.63;45.13;;;1.60;99.90;;;;;;5123336;27;20054;-72
2021/12/23 13:07:34;;;;;;;63.70;44.25;;;1.60;99.90;;;;;;5107479;28;20172;-72
2021/12/23 13:10:09;;;;;;;60.45;43.63;;;1.60;99.90;;;;;;5121304;27;20067;-71
2021/12/23 13:12:54;;;;;;;66.13;45.67;;;1.60;99.90;;;;;;5127502;27;20062;-71
2021/12/23 13:15:32;;;;;;;62.60;43.88;;;1.60;99.90;;;;;;5125418;27;20099;-72
2021/12/23 13:18:07;;;;;;;58.10;41.30;;;1.70;99.90;;;;;;5123289;27;20042;-72
2021/12/23 13:20:42;;;;;;;60.38;44.15;;;1.60;99.90;;;;;;5141521;27;20126;-72
2021/12/23 13:23:12;;;;;;;59.25;42.97;;;1.60;99.90;;;;;;5108241;27;20047;-71
2021/12/23 13:25:57;;;;;;;59.75;42.55;;;1.60;99.90;;;;;;5116462;27;20031;-72
2021/12/23 13:28:29;;;;;;;62.58;44.42;;;1.60;99.90;;;;;;5127698;27;20050;-71
2021/12/23 13:30:56;;;;;;;64.75;44.25;;;1.60;99.90;;;;;;5112172;27;20043;-76
2021/12/23 13:33:22;;;;;;;62.10;42.60;;;1.70;99.90;;;;;;5141389;27;20046;-70
2021/12/23 13:35:47;;;;;;;61.85;42.58;;;1.70;99.90;;;;;;5121654;27;20031;-70
2021/12/23 13:38:34;;;;;;;60.72;43.97;;;1.70;99.90;;;;;;5128799;27;20039;-71
2021/12/23 13:41:17;;;;;;;62.78;42.83;;;1.70;99.90;;;;;;5105973;28;20126;-71
2021/12/23 13:43:43;;;;;;;57.45;42.03;;;1.70;99.90;;;;;;5140659;27;20043;-70
2021/12/23 13:46:09;;;;;;;61.17;42.42;;;1.60;99.90;;;;;;5114292;27;20039;-72